Time;durP1;ratioP1;P1;durP2;ratioP2;P2;SDS_P1;SDS_P2;PMS_P1;PMS_P2;Temp;Humidity;BMP_temperature;BMP_pressure;BME280_temperature;BME280_humidity;BME280_pressure;Samples;Min_cycle;Max_cycle;Signal;HPM_P1;HPM_P2
2023/05/19 00:00:45;;;;;;;5.28;1.38;;;;;;;;;;5063347;28;20103;-70
2023/05/19 00:03:13;;;;;;;2.60;1.38;;;;;;;;;;5068041;28;20048;-70
2023/05/19 00:05:44;;;;;;;2.65;1.05;;;;;;;;;;5066689;28;20131;-70
2023/05/19 00:08:14;;;;;;;2.63;1.17;;;;;;;;;;5065392;28;20059;-70
2023/05/19 00:10:42;;;;;;;5.03;1.50;;;;;;;;;;5068559;28;20052;-70
2023/05/19 00:13:09;;;;;;;2.97;1.40;;;;;;;;;;5069581;28;20102;-70
2023/05/19 00:15:37;;;;;;;3.65;1.38;;;;;;;;;;5066983;28;20387;-70
2023/05/19 00:18:04;;;;;;;4.28;1.27;;;;;;;;;;5068386;28;20060;-70
2023/05/19 00:20:32;;;;;;;2.78;1.10;;;;;;;;;;5062495;28;20118;-70
2023/05/19 00:22:59;;;;;;;5.32;1.60;;;;;;;;;;5064693;28;20044;-70
2023/05/19 00:25:27;;;;;;;3.47;1.20;;;;;;;;;;5068706;28;20048;-70
2023/05/19 00:27:55;;;;;;;4.72;1.38;;;;;;;;;;5068822;28;20412;-70
2023/05/19 00:30:22;;;;;;;9.70;1.52;;;;;;;;;;5068888;28;20048;-70
2023/05/19 00:32:49;;;;;;;4.00;1.50;;;;;;;;;;5067001;28;20076;-70
2023/05/19 00:35:17;;;;;;;6.82;1.58;;;;;;;;;;5069935;28;20067;-70
2023/05/19 00:37:44;;;;;;;2.33;1.13;;;;;;;;;;5067048;28;20044;-70
2023/05/19 00:40:11;;;;;;;4.32;1.40;;;;;;;;;;5068781;28;20059;-70
2023/05/19 00:42:40;;;;;;;1.88;1.10;;;;;;;;;;5066630;28;20053;-70
2023/05/19 00:45:08;;;;;;;2.92;1.27;;;;;;;;;;5067993;28;20314;-70
2023/05/19 00:47:35;;;;;;;3.97;1.20;;;;;;;;;;5067150;28;20052;-70
2023/05/19 00:50:02;;;;;;;3.58;1.55;;;;;;;;;;5070166;28;20403;-70
2023/05/19 00:52:30;;;;;;;2.72;1.35;;;;;;;;;;5067331;28;20075;-70
2023/05/19 00:54:57;;;;;;;4.93;1.27;;;;;;;;;;5066641;28;20044;-70
2023/05/19 00:57:25;;;;;;;4.65;1.48;;;;;;;;;;5065490;28;20052;-70
2023/05/19 00:59:55;;;;;;;3.35;1.30;;;;;;;;;;5069953;28;20056;-70
2023/05/19 01:02:22;;;;;;;3.95;1.80;;;;;;;;;;5067600;28;20049;-70
2023/05/19 01:04:52;;;;;;;4.65;1.50;;;;;;;;;;5060844;28;20454;-70
2023/05/19 01:07:19;;;;;;;2.22;1.27;;;;;;;;;;5052946;28;20080;-70
2023/05/19 01:09:47;;;;;;;3.05;1.30;;;;;;;;;;5066369;28;20048;-70
2023/05/19 01:12:15;;;;;;;3.22;1.58;;;;;;;;;;5057201;28;20045;-70
2023/05/19 01:14:42;;;;;;;5.28;1.60;;;;;;;;;;5067640;28;20052;-70
2023/05/19 01:17:15;;;;;;;5.22;1.52;;;;;;;;;;5054499;28;20049;-70
2023/05/19 01:19:55;;;;;;;4.77;1.17;;;;;;;;;;5063177;28;20467;-70
2023/05/19 01:25:59;;;;;;;3.78;1.50;;;;;;;;;;5017551;28;20440;-70
2023/05/19 01:28:45;;;;;;;5.28;1.30;;;;;;;;;;5063294;28;20064;-70
2023/05/19 01:31:14;;;;;;;3.55;1.60;;;;;;;;;;5063286;28;20495;-70
2023/05/19 01:33:42;;;;;;;2.53;1.20;;;;;;;;;;5061526;28;20075;-70
2023/05/19 01:36:12;;;;;;;4.55;1.50;;;;;;;;;;5068487;28;20048;-71
2023/05/19 01:38:40;;;;;;;5.70;1.40;;;;;;;;;;5070977;28;20045;-70
2023/05/19 01:41:08;;;;;;;3.70;1.23;;;;;;;;;;5066659;28;20053;-70
2023/05/19 01:43:36;;;;;;;3.55;1.48;;;;;;;;;;5074014;28;20159;-70
2023/05/19 01:46:03;;;;;;;8.05;2.08;;;;;;;;;;5073504;28;20403;-71
2023/05/19 01:48:32;;;;;;;3.40;1.40;;;;;;;;;;5069144;28;20122;-70
2023/05/19 01:50:59;;;;;;;3.92;1.63;;;;;;;;;;5064960;28;20059;-70
2023/05/19 02:07:01;;;;;;;2.60;1.20;;;;;;;;;;5063924;28;20094;-70
2023/05/19 02:09:35;;;;;;;3.05;1.50;;;;;;;;;;5074948;28;20050;-70
2023/05/19 02:12:06;;;;;;;4.72;1.30;;;;;;;;;;5072242;28;20051;-70
2023/05/19 02:14:36;;;;;;;7.85;1.75;;;;;;;;;;5071211;28;20063;-70
2023/05/19 02:17:05;;;;;;;5.30;1.58;;;;;;;;;;5070276;28;20056;-70
2023/05/19 02:19:33;;;;;;;3.33;1.13;;;;;;;;;;5070998;28;20119;-70
2023/05/19 02:22:02;;;;;;;2.83;1.40;;;;;;;;;;5073409;28;20048;-70
2023/05/19 02:24:29;;;;;;;3.63;1.25;;;;;;;;;;5069148;28;20048;-70
2023/05/19 02:26:56;;;;;;;3.58;1.33;;;;;;;;;;5068583;28;20052;-70
2023/05/19 02:29:23;;;;;;;3.58;1.20;;;;;;;;;;5070264;28;20045;-70
2023/05/19 02:31:51;;;;;;;2.05;1.20;;;;;;;;;;5069734;28;20049;-70
2023/05/19 02:34:18;;;;;;;4.13;1.25;;;;;;;;;;5070470;28;20049;-70
2023/05/19 02:36:48;;;;;;;4.97;1.17;;;;;;;;;;5067184;28;20055;-70
2023/05/19 02:39:17;;;;;;;3.65;1.20;;;;;;;;;;5071616;28;20048;-70
2023/05/19 02:41:44;;;;;;;1.98;1.10;;;;;;;;;;5067609;28;20056;-70
2023/05/19 02:44:11;;;;;;;3.85;1.00;;;;;;;;;;5069420;28;20051;-70
2023/05/19 02:46:38;;;;;;;3.88;1.20;;;;;;;;;;5067519;28;20222;-71
2023/05/19 02:49:06;;;;;;;3.63;1.13;;;;;;;;;;5070749;28;20492;-70
2023/05/19 02:51:33;;;;;;;4.45;1.20;;;;;;;;;;5067610;28;20040;-70
2023/05/19 02:54:00;;;;;;;2.63;0.95;;;;;;;;;;5062475;28;20044;-70
2023/05/19 02:56:29;;;;;;;2.80;1.23;;;;;;;;;;5065421;28;20511;-70
2023/05/19 02:58:57;;;;;;;3.33;0.80;;;;;;;;;;5071703;28;20054;-70
2023/05/19 03:01:24;;;;;;;1.38;1.05;;;;;;;;;;5066590;28;20040;-70
2023/05/19 03:03:51;;;;;;;2.15;0.80;;;;;;;;;;5068800;28;20041;-70
2023/05/19 03:06:19;;;;;;;1.50;0.90;;;;;;;;;;5070698;28;20056;-70
2023/05/19 03:08:46;;;;;;;3.22;1.10;;;;;;;;;;5070192;28;20045;-70
2023/05/19 03:11:14;;;;;;;4.07;1.10;;;;;;;;;;5064789;28;20049;-70
2023/05/19 03:13:42;;;;;;;1.58;0.80;;;;;;;;;;5067296;28;20102;-70
2023/05/19 03:16:10;;;;;;;7.40;1.52;;;;;;;;;;5064214;28;20644;-70
2023/05/19 03:18:38;;;;;;;3.15;1.27;;;;;;;;;;5070398;28;20488;-70
2023/05/19 03:21:06;;;;;;;3.92;1.08;;;;;;;;;;5070342;28;20067;-70
2023/05/19 03:23:33;;;;;;;3.75;1.10;;;;;;;;;;5069944;28;20045;-70
2023/05/19 03:26:00;;;;;;;2.95;1.00;;;;;;;;;;5067998;28;20605;-70
2023/05/19 03:28:27;;;;;;;3.33;1.02;;;;;;;;;;5062429;28;20048;-71
2023/05/19 03:30:56;;;;;;;3.47;1.00;;;;;;;;;;5062417;28;20048;-70
2023/05/19 03:33:23;;;;;;;1.35;0.80;;;;;;;;;;5063811;28;20105;-70
2023/05/19 03:35:51;;;;;;;5.68;1.00;;;;;;;;;;5065263;28;20393;-70
2023/05/19 03:38:19;;;;;;;1.65;0.80;;;;;;;;;;5068211;28;20499;-71
2023/05/19 03:40:46;;;;;;;1.73;0.80;;;;;;;;;;5063697;28;20048;-70
2023/05/19 03:43:14;;;;;;;2.25;0.82;;;;;;;;;;5063954;28;20048;-70
2023/05/19 03:45:42;;;;;;;2.92;1.00;;;;;;;;;;5065287;28;20041;-70
2023/05/19 03:48:11;;;;;;;2.65;0.90;;;;;;;;;;5069817;28;20040;-73
2023/05/19 03:50:38;;;;;;;4.53;1.10;;;;;;;;;;5060235;28;20053;-70
2023/05/19 03:53:06;;;;;;;2.95;0.77;;;;;;;;;;5070326;28;20396;-70
2023/05/19 03:55:33;;;;;;;5.07;1.25;;;;;;;;;;5065547;28;20098;-70
2023/05/19 03:58:01;;;;;;;2.45;1.10;;;;;;;;;;5069071;28;20044;-70
2023/05/19 04:00:28;;;;;;;6.78;1.50;;;;;;;;;;5063324;28;20080;-70
2023/05/19 04:02:55;;;;;;;6.50;1.52;;;;;;;;;;5070665;28;20048;-70
2023/05/19 04:05:24;;;;;;;2.45;1.05;;;;;;;;;;5068504;28;20135;-70
2023/05/19 04:07:51;;;;;;;1.67;1.00;;;;;;;;;;5070854;28;20052;-70
2023/05/19 04:10:19;;;;;;;2.55;1.00;;;;;;;;;;5069008;28;20139;-70
2023/05/19 04:12:47;;;;;;;2.05;0.80;;;;;;;;;;5062984;28;20125;-71
2023/05/19 04:15:14;;;;;;;1.50;0.85;;;;;;;;;;5067583;28;20048;-70
2023/05/19 04:17:41;;;;;;;2.78;1.08;;;;;;;;;;5066036;28;20411;-71
2023/05/19 04:20:09;;;;;;;2.13;0.80;;;;;;;;;;5069895;28;20052;-70
2023/05/19 04:22:38;;;;;;;2.42;1.00;;;;;;;;;;5070258;28;20372;-70
2023/05/19 04:25:06;;;;;;;3.40;0.68;;;;;;;;;;5067493;28;20064;-71
2023/05/19 04:27:35;;;;;;;4.43;0.85;;;;;;;;;;5065126;28;20040;-70
2023/05/19 04:30:02;;;;;;;1.48;0.80;;;;;;;;;;5065968;28;20052;-70
2023/05/19 04:32:30;;;;;;;2.30;1.30;;;;;;;;;;5069450;28;20102;-71
2023/05/19 04:34:58;;;;;;;3.35;1.20;;;;;;;;;;5068846;28;20049;-70
2023/05/19 04:37:25;;;;;;;2.53;1.10;;;;;;;;;;5069669;28;20531;-70
2023/05/19 04:39:54;;;;;;;3.05;1.05;;;;;;;;;;5067207;28;20059;-70
2023/05/19 04:42:24;;;;;;;2.67;1.38;;;;;;;;;;5068880;28;20051;-70
2023/05/19 04:44:52;;;;;;;2.15;1.10;;;;;;;;;;5068674;28;20418;-71
2023/05/19 04:47:20;;;;;;;1.95;1.02;;;;;;;;;;5066815;28;20071;-70
2023/05/19 04:49:47;;;;;;;3.75;1.30;;;;;;;;;;5067898;28;20399;-71
2023/05/19 04:52:14;;;;;;;2.00;1.02;;;;;;;;;;5067677;28;20040;-70
2023/05/19 04:54:41;;;;;;;1.95;1.00;;;;;;;;;;5066411;28;20045;-70
2023/05/19 04:57:10;;;;;;;2.00;1.10;;;;;;;;;;5066904;28;20507;-71
2023/05/19 04:59:37;;;;;;;6.65;1.40;;;;;;;;;;5071736;28;20377;-70
2023/05/19 05:02:05;;;;;;;1.75;0.95;;;;;;;;;;5066564;28;20044;-70
2023/05/19 05:04:32;;;;;;;5.75;1.20;;;;;;;;;;5065314;28;20044;-70
2023/05/19 05:06:59;;;;;;;1.73;0.90;;;;;;;;;;5065089;28;20492;-70
2023/05/19 05:09:26;;;;;;;3.00;1.15;;;;;;;;;;5072168;28;20044;-70
2023/05/19 05:11:54;;;;;;;3.47;1.20;;;;;;;;;;5066556;28;20511;-70
2023/05/19 05:14:23;;;;;;;2.95;1.15;;;;;;;;;;5069093;28;20491;-70
2023/05/19 05:16:51;;;;;;;4.13;1.60;;;;;;;;;;5069331;28;20059;-70
2023/05/19 05:19:18;;;;;;;5.78;1.55;;;;;;;;;;5067539;28;20051;-70
2023/05/19 05:21:46;;;;;;;1.67;1.20;;;;;;;;;;5057222;28;20056;-70
2023/05/19 05:24:14;;;;;;;3.53;1.55;;;;;;;;;;5067819;28;20055;-70
2023/05/19 05:26:41;;;;;;;2.17;1.48;;;;;;;;;;5060119;28;20044;-70
2023/05/19 05:29:09;;;;;;;5.75;1.40;;;;;;;;;;5064853;28;20052;-70
2023/05/19 05:31:38;;;;;;;4.88;1.52;;;;;;;;;;5065964;28;20048;-70
2023/05/19 05:34:05;;;;;;;5.72;1.63;;;;;;;;;;5068804;28;20056;-70
2023/05/19 05:36:33;;;;;;;3.75;1.60;;;;;;;;;;5066855;28;20044;-70
2023/05/19 05:39:01;;;;;;;3.35;1.73;;;;;;;;;;5068253;28;20086;-70
2023/05/19 05:41:33;;;;;;;4.97;1.75;;;;;;;;;;5067286;28;20127;-70
2023/05/19 05:44:01;;;;;;;4.70;1.70;;;;;;;;;;5069709;28;20109;-71
2023/05/19 05:46:28;;;;;;;4.55;1.95;;;;;;;;;;5065866;28;20521;-70
2023/05/19 05:48:57;;;;;;;6.30;2.05;;;;;;;;;;5067518;28;20062;-70
2023/05/19 05:51:25;;;;;;;6.32;2.05;;;;;;;;;;5062955;28;20044;-70
2023/05/19 05:53:53;;;;;;;8.73;2.10;;;;;;;;;;5068354;28;20507;-71
2023/05/19 05:56:20;;;;;;;7.38;2.45;;;;;;;;;;5068831;28;20047;-70
2023/05/19 05:58:49;;;;;;;9.80;2.33;;;;;;;;;;5068276;28;20489;-70
2023/05/19 06:01:16;;;;;;;8.93;2.30;;;;;;;;;;5066158;28;20060;-70
2023/05/19 06:03:44;;;;;;;8.43;2.20;;;;;;;;;;5068486;28;20408;-70
2023/05/19 06:06:12;;;;;;;5.45;2.40;;;;;;;;;;5067352;28;20400;-70
2023/05/19 06:08:40;;;;;;;9.32;2.70;;;;;;;;;;5067340;28;20451;-70
2023/05/19 06:11:08;;;;;;;10.15;2.53;;;;;;;;;;5066268;28;20044;-70
2023/05/19 06:13:35;;;;;;;9.30;2.75;;;;;;;;;;5068444;28;20048;-70
2023/05/19 06:16:02;;;;;;;8.43;2.92;;;;;;;;;;5066355;28;20044;-70
2023/05/19 06:18:30;;;;;;;7.68;2.58;;;;;;;;;;5068428;28;20492;-70
2023/05/19 06:20:57;;;;;;;5.80;2.53;;;;;;;;;;5070932;28;20045;-70
2023/05/19 06:23:27;;;;;;;9.27;2.60;;;;;;;;;;5072361;28;20049;-70
2023/05/19 06:25:55;;;;;;;10.35;2.85;;;;;;;;;;5064366;28;20041;-70
2023/05/19 06:28:22;;;;;;;9.35;2.40;;;;;;;;;;5066928;28;20065;-70
2023/05/19 06:30:50;;;;;;;5.20;2.53;;;;;;;;;;5067121;28;20081;-70
2023/05/19 06:33:17;;;;;;;8.50;2.42;;;;;;;;;;5063203;28;20049;-70
2023/05/19 06:35:44;;;;;;;6.70;2.70;;;;;;;;;;5067038;28;20123;-70
2023/05/19 06:38:11;;;;;;;11.27;2.80;;;;;;;;;;5068522;28;20407;-70
2023/05/19 06:40:40;;;;;;;7.13;2.58;;;;;;;;;;5067747;28;20048;-70
2023/05/19 06:43:07;;;;;;;5.78;2.20;;;;;;;;;;5073113;28;20375;-70
2023/05/19 06:45:34;;;;;;;5.35;2.20;;;;;;;;;;5068264;28;20048;-69
2023/05/19 06:48:02;;;;;;;7.40;2.70;;;;;;;;;;5070880;28;20043;-69
2023/05/19 06:50:29;;;;;;;6.88;2.45;;;;;;;;;;5068739;28;20048;-69
2023/05/19 06:52:57;;;;;;;7.30;2.00;;;;;;;;;;5070404;28;20181;-69
2023/05/19 06:55:24;;;;;;;7.82;2.25;;;;;;;;;;5071276;28;20590;-69
2023/05/19 06:57:53;;;;;;;6.85;2.50;;;;;;;;;;5069872;28;20144;-69
2023/05/19 07:00:20;;;;;;;6.30;2.38;;;;;;;;;;5070501;28;20057;-69
2023/05/19 07:02:47;;;;;;;7.70;2.47;;;;;;;;;;5061129;28;20091;-69
2023/05/19 07:05:15;;;;;;;5.45;1.90;;;;;;;;;;5057451;28;20086;-70
2023/05/19 07:07:42;;;;;;;6.53;2.03;;;;;;;;;;5060549;28;20067;-69
2023/05/19 07:10:09;;;;;;;6.38;2.25;;;;;;;;;;5065211;28;20063;-70
2023/05/19 07:12:37;;;;;;;6.72;2.22;;;;;;;;;;5060027;28;20049;-70
2023/05/19 07:15:06;;;;;;;6.55;2.30;;;;;;;;;;5064286;28;20055;-69
2023/05/19 07:17:33;;;;;;;10.90;2.40;;;;;;;;;;5068398;28;20040;-70
2023/05/19 07:20:00;;;;;;;4.45;1.70;;;;;;;;;;5070797;28;20555;-69
2023/05/19 07:22:28;;;;;;;6.45;1.83;;;;;;;;;;5070643;28;20071;-70
2023/05/19 07:24:56;;;;;;;6.22;2.28;;;;;;;;;;5069635;28;20044;-70
2023/05/19 07:27:24;;;;;;;3.53;1.38;;;;;;;;;;5059497;28;20080;-67
2023/05/19 07:29:51;;;;;;;4.38;1.98;;;;;;;;;;5066393;28;20063;-67
2023/05/19 07:32:19;;;;;;;3.28;1.50;;;;;;;;;;5069375;28;20044;-67
2023/05/19 07:34:47;;;;;;;4.57;1.30;;;;;;;;;;5064986;28;20055;-67
2023/05/19 07:37:14;;;;;;;7.93;1.50;;;;;;;;;;5069860;28;20487;-67
2023/05/19 07:39:42;;;;;;;3.53;1.85;;;;;;;;;;5064407;28;20056;-68
2023/05/19 07:42:09;;;;;;;2.85;1.40;;;;;;;;;;5064664;28;20040;-67
2023/05/19 07:44:36;;;;;;;3.92;1.52;;;;;;;;;;5067536;28;20076;-67
2023/05/19 07:47:03;;;;;;;4.28;1.63;;;;;;;;;;5069168;28;20044;-67
2023/05/19 07:49:32;;;;;;;7.53;1.60;;;;;;;;;;5066433;28;20048;-68
2023/05/19 07:52:00;;;;;;;4.38;1.73;;;;;;;;;;5069548;28;20052;-68
2023/05/19 07:54:27;;;;;;;5.43;1.73;;;;;;;;;;5069096;28;20049;-67
2023/05/19 07:56:54;;;;;;;5.40;1.70;;;;;;;;;;5068860;28;20048;-67
2023/05/19 07:59:22;;;;;;;6.45;1.75;;;;;;;;;;5060950;28;20071;-67
2023/05/19 08:01:49;;;;;;;5.43;1.40;;;;;;;;;;5065482;28;20279;-67
2023/05/19 08:04:16;;;;;;;4.68;1.40;;;;;;;;;;5068451;28;20045;-68
2023/05/19 08:06:45;;;;;;;5.35;1.73;;;;;;;;;;5066511;28;20045;-67
2023/05/19 08:09:12;;;;;;;3.15;1.48;;;;;;;;;;5065966;28;20057;-67
2023/05/19 08:11:39;;;;;;;4.28;1.50;;;;;;;;;;5065955;28;20059;-67
2023/05/19 08:14:07;;;;;;;3.22;1.30;;;;;;;;;;5066669;28;20098;-67
2023/05/19 08:16:34;;;;;;;4.45;1.30;;;;;;;;;;5069225;28;20117;-67
2023/05/19 08:19:04;;;;;;;9.63;1.50;;;;;;;;;;5073057;28;20067;-67
2023/05/19 08:21:33;;;;;;;6.43;1.73;;;;;;;;;;5069306;28;20049;-67
2023/05/19 08:24:02;;;;;;;5.55;1.70;;;;;;;;;;5069858;28;20455;-67
2023/05/19 08:26:30;;;;;;;2.72;1.15;;;;;;;;;;5064727;28;20091;-67
2023/05/19 08:28:57;;;;;;;3.72;1.30;;;;;;;;;;5064923;28;20127;-67
2023/05/19 08:31:25;;;;;;;4.95;1.63;;;;;;;;;;5064737;28;20119;-67
2023/05/19 08:33:52;;;;;;;2.92;1.33;;;;;;;;;;5064435;28;20064;-67
2023/05/19 08:36:20;;;;;;;5.47;1.70;;;;;;;;;;5067747;28;20040;-68
2023/05/19 08:38:48;;;;;;;5.18;1.73;;;;;;;;;;5068163;28;20048;-67
2023/05/19 08:41:16;;;;;;;3.10;1.50;;;;;;;;;;5065836;28;20096;-67
2023/05/19 08:43:44;;;;;;;2.47;1.25;;;;;;;;;;5068572;28;20491;-68
2023/05/19 08:46:15;;;;;;;3.92;1.58;;;;;;;;;;5068178;28;20469;-67
2023/05/19 08:48:43;;;;;;;2.97;1.33;;;;;;;;;;5067849;28;20143;-67
2023/05/19 08:51:14;;;;;;;8.18;1.48;;;;;;;;;;5068681;28;20480;-68
2023/05/19 08:53:44;;;;;;;4.22;1.83;;;;;;;;;;5066443;28;20064;-67
2023/05/19 08:56:12;;;;;;;2.67;1.50;;;;;;;;;;5068497;28;20052;-67
2023/05/19 08:58:42;;;;;;;4.03;1.50;;;;;;;;;;5066349;28;20083;-67
2023/05/19 09:01:10;;;;;;;5.03;1.75;;;;;;;;;;5068767;28;20048;-68
2023/05/19 09:03:38;;;;;;;2.30;1.42;;;;;;;;;;5068928;28;20056;-67
2023/05/19 09:06:07;;;;;;;3.03;1.38;;;;;;;;;;5067184;28;20086;-67
2023/05/19 09:08:34;;;;;;;5.60;1.77;;;;;;;;;;5065371;28;20693;-67
2023/05/19 09:11:02;;;;;;;4.75;1.55;;;;;;;;;;5067240;28;20058;-67
2023/05/19 09:13:29;;;;;;;2.97;1.42;;;;;;;;;;5069471;28;20045;-67
2023/05/19 09:15:58;;;;;;;3.75;1.60;;;;;;;;;;5070026;28;20059;-67
2023/05/19 09:18:25;;;;;;;3.47;1.63;;;;;;;;;;5069065;28;20052;-67
2023/05/19 09:20:59;;;;;;;3.50;1.40;;;;;;;;;;5069226;28;20063;-67
2023/05/19 09:23:27;;;;;;;;;;;;;;;;;;5066244;28;20119;-68
2023/05/19 09:25:55;;;;;;;3.80;1.55;;;;;;;;;;5068874;28;20720;-67
2023/05/19 09:28:26;;;;;;;4.20;1.38;;;;;;;;;;5062598;28;20071;-68
2023/05/19 09:31:01;;;;;;;3.10;1.40;;;;;;;;;;5068975;28;20094;-68
2023/05/19 09:33:29;;;;;;;5.78;1.67;;;;;;;;;;5069236;28;20051;-67
2023/05/19 09:35:57;;;;;;;3.38;1.33;;;;;;;;;;5066189;28;20411;-67
2023/05/19 09:38:25;;;;;;;4.57;1.77;;;;;;;;;;5068760;28;20078;-67
2023/05/19 09:40:53;;;;;;;5.03;1.50;;;;;;;;;;5062094;28;20056;-67
2023/05/19 09:43:20;;;;;;;2.70;1.65;;;;;;;;;;5067784;28;20051;-67
2023/05/19 09:45:47;;;;;;;2.88;1.60;;;;;;;;;;5065788;28;20569;-67
2023/05/19 09:48:16;;;;;;;5.22;1.73;;;;;;;;;;5068412;28;20052;-67
2023/05/19 09:50:45;;;;;;;4.22;1.73;;;;;;;;;;5067700;28;20053;-67
2023/05/19 09:53:15;;;;;;;3.40;1.40;;;;;;;;;;5067940;28;20052;-68
2023/05/19 09:55:42;;;;;;;4.88;1.40;;;;;;;;;;5068668;28;20059;-67
2023/05/19 09:58:10;;;;;;;5.50;1.70;;;;;;;;;;5071603;28;20044;-67
2023/05/19 10:00:38;;;;;;;3.85;1.67;;;;;;;;;;5067042;28;20052;-67
2023/05/19 10:03:06;;;;;;;3.03;1.60;;;;;;;;;;5069152;28;20451;-68
2023/05/19 10:05:34;;;;;;;3.67;1.40;;;;;;;;;;5065678;28;20488;-67
2023/05/19 10:08:05;;;;;;;3.10;1.23;;;;;;;;;;5068635;28;20044;-67
2023/05/19 10:10:33;;;;;;;3.13;1.63;;;;;;;;;;5070695;28;20045;-67
2023/05/19 10:13:02;;;;;;;3.55;1.60;;;;;;;;;;5070151;28;20041;-67
2023/05/19 10:15:30;;;;;;;7.20;1.70;;;;;;;;;;5071811;28;20076;-68
2023/05/19 10:17:58;;;;;;;3.97;1.63;;;;;;;;;;5071530;28;20044;-68
2023/05/19 10:20:27;;;;;;;5.55;1.98;;;;;;;;;;5070333;28;20071;-68
2023/05/19 10:22:55;;;;;;;3.35;1.58;;;;;;;;;;5070099;28;20469;-68
2023/05/19 10:25:23;;;;;;;2.75;1.30;;;;;;;;;;5072759;28;20049;-67
2023/05/19 10:27:51;;;;;;;5.57;1.52;;;;;;;;;;5068819;28;20059;-67
2023/05/19 10:30:21;;;;;;;4.18;1.65;;;;;;;;;;5068556;28;20091;-68
2023/05/19 10:32:48;;;;;;;4.22;1.60;;;;;;;;;;5063725;28;20395;-67
2023/05/19 10:35:40;;;;;;;4.47;1.40;;;;;;;;;;5074076;28;20059;-68
2023/05/19 10:38:13;;;;;;;3.90;1.95;;;;;;;;;;5068757;28;20051;-68
2023/05/19 10:40:44;;;;;;;4.38;1.67;;;;;;;;;;5068526;28;20052;-68
2023/05/19 10:43:16;;;;;;;3.95;1.70;;;;;;;;;;5069053;28;20399;-68
2023/05/19 10:45:46;;;;;;;3.22;1.70;;;;;;;;;;5065838;28;20443;-67
2023/05/19 10:48:15;;;;;;;6.03;1.75;;;;;;;;;;5069586;28;20131;-68
2023/05/19 10:50:44;;;;;;;5.25;1.75;;;;;;;;;;5067925;28;21237;-67
2023/05/19 10:53:17;;;;;;;6.28;1.60;;;;;;;;;;5068309;28;20131;-68
2023/05/19 10:55:48;;;;;;;3.22;1.63;;;;;;;;;;5066836;28;20099;-68
2023/05/19 10:58:15;;;;;;;3.17;1.50;;;;;;;;;;5068130;28;20041;-68
2023/05/19 11:00:42;;;;;;;3.45;1.58;;;;;;;;;;5065671;28;20064;-68
2023/05/19 11:03:13;;;;;;;3.00;1.65;;;;;;;;;;5070222;28;20048;-68
2023/05/19 11:05:40;;;;;;;3.85;1.45;;;;;;;;;;5068723;28;20049;-68
2023/05/19 11:08:10;;;;;;;2.85;1.40;;;;;;;;;;5070875;28;20110;-68
2023/05/19 11:10:39;;;;;;;4.78;2.00;;;;;;;;;;5071834;28;20088;-67
2023/05/19 11:13:06;;;;;;;4.07;1.75;;;;;;;;;;5066900;28;20127;-67
2023/05/19 11:15:36;;;;;;;7.15;1.65;;;;;;;;;;5065688;28;20061;-67
2023/05/19 11:18:05;;;;;;;4.07;1.40;;;;;;;;;;5067273;28;20052;-67
2023/05/19 11:20:33;;;;;;;2.10;1.20;;;;;;;;;;5071389;28;20383;-67
2023/05/19 11:23:07;;;;;;;3.30;1.45;;;;;;;;;;5065580;28;20055;-67
2023/05/19 11:25:46;;;;;;;2.88;1.30;;;;;;;;;;5070242;28;20543;-67
2023/05/19 11:28:15;;;;;;;3.17;1.50;;;;;;;;;;5066673;28;20553;-68
2023/05/19 11:30:43;;;;;;;5.55;1.67;;;;;;;;;;5070308;28;20817;-67
2023/05/19 11:33:12;;;;;;;2.58;1.42;;;;;;;;;;5067574;28;20089;-67
2023/05/19 11:35:39;;;;;;;4.97;1.50;;;;;;;;;;5067170;28;20052;-67
2023/05/19 11:38:07;;;;;;;1.95;1.30;;;;;;;;;;5064241;28;20128;-67
2023/05/19 11:40:34;;;;;;;2.65;1.60;;;;;;;;;;5063783;28;20507;-67
2023/05/19 11:43:03;;;;;;;5.55;1.60;;;;;;;;;;5061886;28;20036;-67
2023/05/19 11:45:32;;;;;;;1.65;1.17;;;;;;;;;;5067895;28;20056;-67
2023/05/19 11:48:01;;;;;;;3.58;1.80;;;;;;;;;;5062422;28;20041;-67
2023/05/19 11:50:28;;;;;;;3.15;1.38;;;;;;;;;;5064092;28;20056;-67
2023/05/19 11:52:56;;;;;;;3.97;1.27;;;;;;;;;;5068946;28;20052;-67
2023/05/19 11:55:24;;;;;;;2.38;1.20;;;;;;;;;;5066957;28;20484;-68
2023/05/19 11:57:58;;;;;;;4.90;1.40;;;;;;;;;;5067273;28;20488;-69
2023/05/19 12:00:27;;;;;;;3.85;1.63;;;;;;;;;;5062187;28;20499;-68
2023/05/19 12:02:54;;;;;;;1.73;1.08;;;;;;;;;;5069646;28;20044;-67
2023/05/19 12:05:22;;;;;;;5.28;1.10;;;;;;;;;;5067780;28;20045;-67
2023/05/19 12:07:50;;;;;;;3.08;1.75;;;;;;;;;;5073840;28;20048;-67
2023/05/19 12:10:19;;;;;;;2.28;1.40;;;;;;;;;;5063378;28;20139;-67
2023/05/19 12:12:48;;;;;;;3.85;1.52;;;;;;;;;;5067376;28;20084;-67
2023/05/19 12:15:16;;;;;;;3.75;1.67;;;;;;;;;;5069490;28;20426;-67
2023/05/19 12:17:45;;;;;;;3.75;1.45;;;;;;;;;;5065771;28;20053;-67
2023/05/19 12:20:13;;;;;;;3.20;1.60;;;;;;;;;;5069748;28;20132;-67
2023/05/19 12:22:40;;;;;;;4.30;1.63;;;;;;;;;;5069016;28;20055;-67
2023/05/19 12:25:08;;;;;;;3.40;1.40;;;;;;;;;;5064362;28;20048;-67
2023/05/19 12:27:36;;;;;;;3.30;1.38;;;;;;;;;;5059649;28;20056;-67
2023/05/19 12:30:04;;;;;;;5.82;1.63;;;;;;;;;;5063067;28;20148;-67
2023/05/19 12:32:35;;;;;;;4.30;1.65;;;;;;;;;;5066133;28;20048;-67
2023/05/19 12:35:05;;;;;;;5.93;1.98;;;;;;;;;;5068162;28;20041;-67
2023/05/19 12:37:33;;;;;;;2.80;1.70;;;;;;;;;;5068453;28;20059;-68
2023/05/19 12:40:01;;;;;;;2.72;1.45;;;;;;;;;;5067630;28;20037;-68
2023/05/19 12:42:30;;;;;;;4.60;1.80;;;;;;;;;;5069775;28;20063;-67
2023/05/19 12:44:57;;;;;;;6.00;1.77;;;;;;;;;;5066359;28;20079;-67
2023/05/19 12:47:30;;;;;;;3.47;1.75;;;;;;;;;;5067808;28;20045;-67
2023/05/19 12:50:01;;;;;;;3.70;1.98;;;;;;;;;;5064697;28;20085;-67
2023/05/19 12:52:31;;;;;;;5.30;2.10;;;;;;;;;;5066626;28;20088;-67
2023/05/19 12:55:00;;;;;;;3.13;1.90;;;;;;;;;;5065270;28;20053;-67
2023/05/19 12:57:30;;;;;;;3.47;1.77;;;;;;;;;;5064656;28;20056;-67
2023/05/19 13:00:01;;;;;;;4.10;2.15;;;;;;;;;;5063239;28;20143;-68
2023/05/19 13:02:28;;;;;;;3.88;1.90;;;;;;;;;;5065099;28;20399;-67
2023/05/19 13:04:57;;;;;;;4.63;2.03;;;;;;;;;;5060905;28;20136;-67
2023/05/19 13:07:24;;;;;;;3.25;2.10;;;;;;;;;;5062214;28;20041;-67
2023/05/19 13:09:53;;;;;;;3.92;2.25;;;;;;;;;;5063445;28;20480;-67
2023/05/19 13:12:20;;;;;;;5.40;2.03;;;;;;;;;;5065445;28;20098;-67
2023/05/19 13:14:48;;;;;;;6.07;2.53;;;;;;;;;;5068653;28;20496;-67
2023/05/19 13:17:15;;;;;;;7.22;2.50;;;;;;;;;;5063975;28;20057;-67
2023/05/19 13:19:42;;;;;;;5.63;2.80;;;;;;;;;;5065560;28;20075;-67
2023/05/19 13:22:09;;;;;;;4.18;2.22;;;;;;;;;;5069604;28;20522;-68
2023/05/19 13:24:36;;;;;;;4.60;2.40;;;;;;;;;;5066226;28;20048;-67
2023/05/19 13:27:05;;;;;;;4.35;2.30;;;;;;;;;;5065678;28;20052;-67
2023/05/19 13:29:32;;;;;;;6.05;2.30;;;;;;;;;;5073579;28;20048;-68
2023/05/19 13:32:00;;;;;;;4.28;2.10;;;;;;;;;;5073390;28;20047;-67
2023/05/19 13:34:27;;;;;;;3.42;2.13;;;;;;;;;;5074302;28;20056;-68
2023/05/19 13:36:54;;;;;;;5.22;2.20;;;;;;;;;;5073188;28;20052;-67
2023/05/19 13:39:21;;;;;;;4.43;2.20;;;;;;;;;;5073600;28;20048;-68
2023/05/19 13:41:49;;;;;;;4.10;2.00;;;;;;;;;;5074245;28;20055;-68
2023/05/19 13:44:17;;;;;;;3.88;2.28;;;;;;;;;;5073121;28;20510;-68
2023/05/19 13:46:45;;;;;;;3.28;2.13;;;;;;;;;;5070319;28;20051;-67
2023/05/19 13:49:12;;;;;;;3.78;2.08;;;;;;;;;;5073861;28;20124;-68
2023/05/19 13:51:40;;;;;;;4.20;2.30;;;;;;;;;;5075881;28;20102;-67
2023/05/19 13:54:07;;;;;;;3.08;2.00;;;;;;;;;;5074894;28;20056;-68
2023/05/19 13:56:34;;;;;;;7.25;2.53;;;;;;;;;;5076491;28;20957;-67
2023/05/19 13:59:02;;;;;;;5.57;2.40;;;;;;;;;;5067635;28;20036;-68
2023/05/19 14:01:31;;;;;;;6.05;2.33;;;;;;;;;;5075245;28;20155;-67
2023/05/19 14:03:58;;;;;;;4.40;2.20;;;;;;;;;;5071259;28;20106;-68
2023/05/19 14:06:26;;;;;;;5.53;2.30;;;;;;;;;;5072381;28;20053;-68
2023/05/19 14:08:53;;;;;;;5.13;2.42;;;;;;;;;;5076445;28;20044;-67
2023/05/19 14:11:21;;;;;;;4.03;2.25;;;;;;;;;;5072232;28;20052;-68
2023/05/19 14:13:49;;;;;;;4.13;1.95;;;;;;;;;;5070228;28;20056;-68
2023/05/19 14:16:16;;;;;;;4.97;2.13;;;;;;;;;;5068321;28;20049;-67
2023/05/19 14:18:45;;;;;;;3.67;2.10;;;;;;;;;;5071285;28;20055;-68
2023/05/19 14:21:12;;;;;;;3.92;2.20;;;;;;;;;;5070904;28;20049;-67
2023/05/19 14:23:39;;;;;;;4.70;2.00;;;;;;;;;;5074255;28;20056;-68
2023/05/19 14:26:07;;;;;;;4.68;2.05;;;;;;;;;;5072811;28;20044;-67
2023/05/19 14:28:34;;;;;;;5.28;2.60;;;;;;;;;;5075608;28;20052;-68
2023/05/19 14:31:01;;;;;;;4.03;2.05;;;;;;;;;;5068740;28;20045;-68
2023/05/19 14:33:29;;;;;;;4.93;2.38;;;;;;;;;;5073994;28;20145;-68
2023/05/19 14:35:58;;;;;;;2.78;2.20;;;;;;;;;;5076348;28;20044;-67
2023/05/19 14:38:26;;;;;;;4.55;2.45;;;;;;;;;;5073668;28;20067;-68
2023/05/19 14:40:53;;;;;;;3.00;1.95;;;;;;;;;;5071863;28;20049;-67
2023/05/19 14:43:20;;;;;;;6.50;2.05;;;;;;;;;;5071251;28;20095;-67
2023/05/19 14:45:47;;;;;;;4.20;2.20;;;;;;;;;;5066261;28;20053;-68
2023/05/19 14:48:15;;;;;;;4.07;1.90;;;;;;;;;;5072120;28;20040;-69
2023/05/19 14:50:42;;;;;;;4.07;2.03;;;;;;;;;;5071081;28;20048;-68
2023/05/19 14:53:11;;;;;;;4.05;1.92;;;;;;;;;;5072475;28;20376;-68
2023/05/19 14:55:38;;;;;;;5.85;2.50;;;;;;;;;;5070689;28;20055;-68
2023/05/19 14:58:05;;;;;;;2.42;1.70;;;;;;;;;;5071800;28;20507;-67
2023/05/19 15:00:32;;;;;;;7.70;2.00;;;;;;;;;;5058902;28;20040;-68
2023/05/19 15:03:00;;;;;;;3.65;1.92;;;;;;;;;;5071798;28;20056;-68
2023/05/19 15:05:27;;;;;;;5.95;2.42;;;;;;;;;;5068113;28;20044;-67